sensor_id;sensor_type;location;lat;lon;timestamp;temperature;humidity
37646;DHT22;23489;49.600;6.138;2022-12-08T00:01:58;3.60;99.90
37646;DHT22;23489;49.600;6.138;2022-12-08T00:04:24;3.60;99.90
37646;DHT22;23489;49.600;6.138;2022-12-08T00:06:50;3.60;99.90
37646;DHT22;23489;49.600;6.138;2022-12-08T00:09:39;3.60;99.90
37646;DHT22;23489;49.600;6.138;2022-12-08T00:12:11;3.60;99.90
37646;DHT22;23489;49.600;6.138;2022-12-08T00:14:40;3.60;99.90
37646;DHT22;23489;49.600;6.138;2022-12-08T00:17:07;3.60;99.90
37646;DHT22;23489;49.600;6.138;2022-12-08T00:19:34;3.60;99.90
37646;DHT22;23489;49.600;6.138;2022-12-08T00:21:59;3.60;99.90
37646;DHT22;23489;49.600;6.138;2022-12-08T00:24:30;3.60;99.90
37646;DHT22;23489;49.600;6.138;2022-12-08T00:26:56;3.50;99.90
37646;DHT22;23489;49.600;6.138;2022-12-08T00:29:22;3.50;99.90
37646;DHT22;23489;49.600;6.138;2022-12-08T00:31:47;3.50;99.90
37646;DHT22;23489;49.600;6.138;2022-12-08T00:34:14;3.50;99.90
37646;DHT22;23489;49.600;6.138;2022-12-08T00:36:40;3.50;99.90
37646;DHT22;23489;49.600;6.138;2022-12-08T00:39:06;3.50;99.90
37646;DHT22;23489;49.600;6.138;2022-12-08T00:41:32;3.50;99.90
37646;DHT22;23489;49.600;6.138;2022-12-08T00:44:17;3.50;99.90
37646;DHT22;23489;49.600;6.138;2022-12-08T00:46:44;3.50;99.90
37646;DHT22;23489;49.600;6.138;2022-12-08T00:49:10;3.50;99.90
37646;DHT22;23489;49.600;6.138;2022-12-08T00:51:36;3.60;99.90
37646;DHT22;23489;49.600;6.138;2022-12-08T00:54:03;3.60;99.90
37646;DHT22;23489;49.600;6.138;2022-12-08T00:56:29;3.60;99.90
37646;DHT22;23489;49.600;6.138;2022-12-08T00:58:55;3.60;99.90
37646;DHT22;23489;49.600;6.138;2022-12-08T01:01:20;3.60;99.90
37646;DHT22;23489;49.600;6.138;2022-12-08T01:03:46;3.50;99.90
37646;DHT22;23489;49.600;6.138;2022-12-08T01:06:12;3.50;99.90
37646;DHT22;23489;49.600;6.138;2022-12-08T01:08:38;3.50;99.90
37646;DHT22;23489;49.600;6.138;2022-12-08T01:11:08;3.50;99.90
37646;DHT22;23489;49.600;6.138;2022-12-08T01:13:34;3.60;99.90
37646;DHT22;23489;49.600;6.138;2022-12-08T01:16:00;3.60;99.90
37646;DHT22;23489;49.600;6.138;2022-12-08T01:18:26;3.60;99.90
37646;DHT22;23489;49.600;6.138;2022-12-08T01:20:52;3.50;99.90
37646;DHT22;23489;49.600;6.138;2022-12-08T01:23:18;3.60;99.90
37646;DHT22;23489;49.600;6.138;2022-12-08T01:25:44;3.60;99.90
37646;DHT22;23489;49.600;6.138;2022-12-08T01:28:10;3.60;99.90
37646;DHT22;23489;49.600;6.138;2022-12-08T01:30:38;3.60;99.90
37646;DHT22;23489;49.600;6.138;2022-12-08T01:33:04;3.60;99.90
37646;DHT22;23489;49.600;6.138;2022-12-08T01:35:30;3.60;99.90
37646;DHT22;23489;49.600;6.138;2022-12-08T01:37:55;3.60;99.90
37646;DHT22;23489;49.600;6.138;2022-12-08T01:40:21;3.60;99.90
37646;DHT22;23489;49.600;6.138;2022-12-08T01:42:48;3.60;99.90
37646;DHT22;23489;49.600;6.138;2022-12-08T01:47:47;3.70;99.90
37646;DHT22;23489;49.600;6.138;2022-12-08T01:50:15;3.70;99.90
37646;DHT22;23489;49.600;6.138;2022-12-08T01:52:55;3.70;99.90
37646;DHT22;23489;49.600;6.138;2022-12-08T01:55:26;3.70;99.90
37646;DHT22;23489;49.600;6.138;2022-12-08T01:57:57;3.60;99.90
37646;DHT22;23489;49.600;6.138;2022-12-08T02:00:25;3.60;99.90
37646;DHT22;23489;49.600;6.138;2022-12-08T02:02:59;3.60;99.90
37646;DHT22;23489;49.600;6.138;2022-12-08T02:05:36;3.60;99.90
37646;DHT22;23489;49.600;6.138;2022-12-08T02:08:07;3.70;99.90
37646;DHT22;23489;49.600;6.138;2022-12-08T02:10:36;3.60;99.90
37646;DHT22;23489;49.600;6.138;2022-12-08T02:13:04;3.60;99.90
37646;DHT22;23489;49.600;6.138;2022-12-08T02:15:42;3.50;99.90
37646;DHT22;23489;49.600;6.138;2022-12-08T02:18:29;3.60;99.90
37646;DHT22;23489;49.600;6.138;2022-12-08T02:21:10;3.50;99.90
37646;DHT22;23489;49.600;6.138;2022-12-08T02:23:54;3.50;99.90
37646;DHT22;23489;49.600;6.138;2022-12-08T02:26:41;3.50;99.90
37646;DHT22;23489;49.600;6.138;2022-12-08T02:37:10;3.40;99.90
37646;DHT22;23489;49.600;6.138;2022-12-08T02:40:00;3.30;99.90
37646;DHT22;23489;49.600;6.138;2022-12-08T02:42:45;3.30;99.90
37646;DHT22;23489;49.600;6.138;2022-12-08T02:45:32;3.20;99.90
37646;DHT22;23489;49.600;6.138;2022-12-08T02:47:59;3.10;99.90
37646;DHT22;23489;49.600;6.138;2022-12-08T02:50:26;3.10;99.90
37646;DHT22;23489;49.600;6.138;2022-12-08T02:52:52;3.00;99.90
37646;DHT22;23489;49.600;6.138;2022-12-08T02:55:19;3.00;99.90
37646;DHT22;23489;49.600;6.138;2022-12-08T02:58:25;2.90;99.90
37646;DHT22;23489;49.600;6.138;2022-12-08T03:04:07;2.90;99.90
37646;DHT22;23489;49.600;6.138;2022-12-08T03:06:47;2.90;99.90
37646;DHT22;23489;49.600;6.138;2022-12-08T03:09:41;2.90;99.90
37646;DHT22;23489;49.600;6.138;2022-12-08T03:12:19;2.90;99.90
37646;DHT22;23489;49.600;6.138;2022-12-08T03:14:49;2.90;99.90
37646;DHT22;23489;49.600;6.138;2022-12-08T03:17:16;2.80;99.90
37646;DHT22;23489;49.600;6.138;2022-12-08T03:19:45;2.90;99.90
37646;DHT22;23489;49.600;6.138;2022-12-08T03:22:12;2.90;99.90
37646;DHT22;23489;49.600;6.138;2022-12-08T03:24:43;2.90;99.90
37646;DHT22;23489;49.600;6.138;2022-12-08T03:27:29;2.90;99.90
37646;DHT22;23489;49.600;6.138;2022-12-08T03:29:58;2.90;99.90
37646;DHT22;23489;49.600;6.138;2022-12-08T03:35:09;2.90;99.90
37646;DHT22;23489;49.600;6.138;2022-12-08T03:37:38;2.90;99.90
37646;DHT22;23489;49.600;6.138;2022-12-08T03:40:06;2.90;99.90
37646;DHT22;23489;49.600;6.138;2022-12-08T03:42:32;2.90;99.90
37646;DHT22;23489;49.600;6.138;2022-12-08T03:44:58;2.90;99.90
37646;DHT22;23489;49.600;6.138;2022-12-08T03:47:24;2.90;99.90
37646;DHT22;23489;49.600;6.138;2022-12-08T03:49:49;3.00;99.90
37646;DHT22;23489;49.600;6.138;2022-12-08T03:52:15;3.00;99.90
37646;DHT22;23489;49.600;6.138;2022-12-08T03:54:41;2.90;99.90
37646;DHT22;23489;49.600;6.138;2022-12-08T03:57:07;2.90;99.90
37646;DHT22;23489;49.600;6.138;2022-12-08T03:59:32;2.90;99.90
37646;DHT22;23489;49.600;6.138;2022-12-08T04:01:58;2.90;99.90
37646;DHT22;23489;49.600;6.138;2022-12-08T04:04:24;2.90;99.90
37646;DHT22;23489;49.600;6.138;2022-12-08T04:06:49;2.90;99.90
37646;DHT22;23489;49.600;6.138;2022-12-08T04:09:16;2.90;99.90
37646;DHT22;23489;49.600;6.138;2022-12-08T04:11:42;2.90;99.90
37646;DHT22;23489;49.600;6.138;2022-12-08T04:14:08;2.90;99.90
37646;DHT22;23489;49.600;6.138;2022-12-08T04:16:33;2.90;99.90
37646;DHT22;23489;49.600;6.138;2022-12-08T04:18:59;2.90;99.90
37646;DHT22;23489;49.600;6.138;2022-12-08T04:21:25;2.90;99.90
37646;DHT22;23489;49.600;6.138;2022-12-08T04:23:50;3.00;99.90
37646;DHT22;23489;49.600;6.138;2022-12-08T04:26:16;3.00;99.90
37646;DHT22;23489;49.600;6.138;2022-12-08T04:28:42;3.00;99.90
37646;DHT22;23489;49.600;6.138;2022-12-08T04:31:08;3.00;99.90
37646;DHT22;23489;49.600;6.138;2022-12-08T04:33:34;3.00;99.90
37646;DHT22;23489;49.600;6.138;2022-12-08T04:36:00;3.00;99.90
37646;DHT22;23489;49.600;6.138;2022-12-08T04:38:26;3.00;99.90
37646;DHT22;23489;49.600;6.138;2022-12-08T04:40:52;2.90;99.90
37646;DHT22;23489;49.600;6.138;2022-12-08T04:43:17;2.90;99.90
37646;DHT22;23489;49.600;6.138;2022-12-08T04:45:43;2.80;99.90
37646;DHT22;23489;49.600;6.138;2022-12-08T04:48:09;2.80;99.90
37646;DHT22;23489;49.600;6.138;2022-12-08T04:50:39;2.80;99.90
37646;DHT22;23489;49.600;6.138;2022-12-08T04:53:06;2.70;99.90
37646;DHT22;23489;49.600;6.138;2022-12-08T04:55:32;2.70;99.90
37646;DHT22;23489;49.600;6.138;2022-12-08T04:57:58;2.70;99.90
37646;DHT22;23489;49.600;6.138;2022-12-08T05:00:23;2.70;99.90
37646;DHT22;23489;49.600;6.138;2022-12-08T05:02:49;2.70;99.90
37646;DHT22;23489;49.600;6.138;2022-12-08T05:05:15;2.70;99.90
37646;DHT22;23489;49.600;6.138;2022-12-08T05:07:41;2.70;99.90
37646;DHT22;23489;49.600;6.138;2022-12-08T05:10:07;2.80;99.90
37646;DHT22;23489;49.600;6.138;2022-12-08T05:12:33;2.80;99.90
37646;DHT22;23489;49.600;6.138;2022-12-08T05:14:59;2.90;99.90
37646;DHT22;23489;49.600;6.138;2022-12-08T05:17:25;3.00;99.90
37646;DHT22;23489;49.600;6.138;2022-12-08T05:19:50;2.90;99.90
37646;DHT22;23489;49.600;6.138;2022-12-08T05:22:16;3.00;99.90
37646;DHT22;23489;49.600;6.138;2022-12-08T05:24:42;3.00;99.90
37646;DHT22;23489;49.600;6.138;2022-12-08T05:27:08;3.00;99.90
37646;DHT22;23489;49.600;6.138;2022-12-08T05:29:34;3.00;99.90
37646;DHT22;23489;49.600;6.138;2022-12-08T05:32:00;3.00;99.90
37646;DHT22;23489;49.600;6.138;2022-12-08T05:34:25;2.90;99.90
37646;DHT22;23489;49.600;6.138;2022-12-08T05:36:51;2.90;99.90
37646;DHT22;23489;49.600;6.138;2022-12-08T05:39:17;2.90;99.90
37646;DHT22;23489;49.600;6.138;2022-12-08T05:41:42;2.90;99.90
37646;DHT22;23489;49.600;6.138;2022-12-08T05:44:08;2.80;99.90
37646;DHT22;23489;49.600;6.138;2022-12-08T05:46:34;2.80;99.90
37646;DHT22;23489;49.600;6.138;2022-12-08T05:49:00;2.80;99.90
37646;DHT22;23489;49.600;6.138;2022-12-08T05:51:26;2.70;99.90
37646;DHT22;23489;49.600;6.138;2022-12-08T05:53:53;2.70;99.90
37646;DHT22;23489;49.600;6.138;2022-12-08T05:56:19;2.70;99.90
37646;DHT22;23489;49.600;6.138;2022-12-08T05:58:45;2.70;99.90
37646;DHT22;23489;49.600;6.138;2022-12-08T06:01:26;2.70;99.90
37646;DHT22;23489;49.600;6.138;2022-12-08T06:03:52;2.80;99.90
37646;DHT22;23489;49.600;6.138;2022-12-08T06:06:18;2.80;99.90
37646;DHT22;23489;49.600;6.138;2022-12-08T06:08:44;2.70;99.90
37646;DHT22;23489;49.600;6.138;2022-12-08T06:11:20;2.60;99.90
37646;DHT22;23489;49.600;6.138;2022-12-08T06:13:46;2.60;99.90
37646;DHT22;23489;49.600;6.138;2022-12-08T06:16:12;2.60;99.90
37646;DHT22;23489;49.600;6.138;2022-12-08T06:18:37;2.60;99.90
37646;DHT22;23489;49.600;6.138;2022-12-08T06:21:04;2.60;99.90
37646;DHT22;23489;49.600;6.138;2022-12-08T06:23:31;2.60;99.90
37646;DHT22;23489;49.600;6.138;2022-12-08T06:26:00;2.60;99.90
37646;DHT22;23489;49.600;6.138;2022-12-08T06:28:26;2.60;99.90
37646;DHT22;23489;49.600;6.138;2022-12-08T06:30:52;2.60;99.90
37646;DHT22;23489;49.600;6.138;2022-12-08T06:33:18;2.60;99.90
37646;DHT22;23489;49.600;6.138;2022-12-08T06:35:43;2.60;99.90
37646;DHT22;23489;49.600;6.138;2022-12-08T06:38:09;2.60;99.90
37646;DHT22;23489;49.600;6.138;2022-12-08T06:40:34;2.50;99.90
37646;DHT22;23489;49.600;6.138;2022-12-08T06:43:00;2.30;99.90
37646;DHT22;23489;49.600;6.138;2022-12-08T06:45:26;2.30;99.90
37646;DHT22;23489;49.600;6.138;2022-12-08T06:47:51;2.20;99.90
37646;DHT22;23489;49.600;6.138;2022-12-08T06:50:17;2.10;99.90
37646;DHT22;23489;49.600;6.138;2022-12-08T06:52:42;2.00;99.90
37646;DHT22;23489;49.600;6.138;2022-12-08T06:55:10;2.00;99.90
37646;DHT22;23489;49.600;6.138;2022-12-08T06:57:36;2.00;99.90
37646;DHT22;23489;49.600;6.138;2022-12-08T07:00:04;1.90;99.90
37646;DHT22;23489;49.600;6.138;2022-12-08T07:02:29;1.90;99.90
37646;DHT22;23489;49.600;6.138;2022-12-08T07:04:55;1.90;99.90
37646;DHT22;23489;49.600;6.138;2022-12-08T07:07:21;1.80;99.90
37646;DHT22;23489;49.600;6.138;2022-12-08T07:09:46;1.80;99.90
37646;DHT22;23489;49.600;6.138;2022-12-08T07:12:12;1.80;99.90
37646;DHT22;23489;49.600;6.138;2022-12-08T07:14:38;1.70;99.90
37646;DHT22;23489;49.600;6.138;2022-12-08T07:17:03;1.60;99.90
37646;DHT22;23489;49.600;6.138;2022-12-08T07:19:29;1.60;99.90
37646;DHT22;23489;49.600;6.138;2022-12-08T07:21:55;1.60;99.90
37646;DHT22;23489;49.600;6.138;2022-12-08T07:24:21;1.60;99.90
37646;DHT22;23489;49.600;6.138;2022-12-08T07:26:47;1.50;99.90
37646;DHT22;23489;49.600;6.138;2022-12-08T07:29:12;1.50;99.90
37646;DHT22;23489;49.600;6.138;2022-12-08T07:31:38;1.50;99.90
37646;DHT22;23489;49.600;6.138;2022-12-08T07:34:04;1.50;99.90
37646;DHT22;23489;49.600;6.138;2022-12-08T07:36:30;1.60;99.90
37646;DHT22;23489;49.600;6.138;2022-12-08T07:38:57;1.70;99.90
37646;DHT22;23489;49.600;6.138;2022-12-08T07:41:24;1.70;99.90
37646;DHT22;23489;49.600;6.138;2022-12-08T07:43:51;1.70;99.90
37646;DHT22;23489;49.600;6.138;2022-12-08T07:46:19;1.70;99.90
37646;DHT22;23489;49.600;6.138;2022-12-08T07:48:46;1.70;99.90
37646;DHT22;23489;49.600;6.138;2022-12-08T07:51:13;1.70;99.90
37646;DHT22;23489;49.600;6.138;2022-12-08T07:53:40;1.70;99.90
37646;DHT22;23489;49.600;6.138;2022-12-08T07:56:07;1.70;99.90
37646;DHT22;23489;49.600;6.138;2022-12-08T07:58:33;1.70;99.90
37646;DHT22;23489;49.600;6.138;2022-12-08T08:00:59;1.70;99.90
37646;DHT22;23489;49.600;6.138;2022-12-08T08:03:24;1.80;99.90
37646;DHT22;23489;49.600;6.138;2022-12-08T08:05:50;1.90;99.90
37646;DHT22;23489;49.600;6.138;2022-12-08T08:08:16;1.90;99.90
37646;DHT22;23489;49.600;6.138;2022-12-08T08:10:42;1.90;99.90
37646;DHT22;23489;49.600;6.138;2022-12-08T08:13:08;1.90;99.90
37646;DHT22;23489;49.600;6.138;2022-12-08T08:15:34;2.00;99.90
37646;DHT22;23489;49.600;6.138;2022-12-08T08:18:00;2.00;99.90
37646;DHT22;23489;49.600;6.138;2022-12-08T08:20:27;2.20;99.90
37646;DHT22;23489;49.600;6.138;2022-12-08T08:22:52;2.30;99.90
37646;DHT22;23489;49.600;6.138;2022-12-08T08:25:20;2.50;99.90
37646;DHT22;23489;49.600;6.138;2022-12-08T08:27:49;2.50;99.90
37646;DHT22;23489;49.600;6.138;2022-12-08T08:30:15;2.60;99.90
37646;DHT22;23489;49.600;6.138;2022-12-08T08:32:42;2.70;99.90
37646;DHT22;23489;49.600;6.138;2022-12-08T08:35:08;2.70;99.90
37646;DHT22;23489;49.600;6.138;2022-12-08T08:37:34;3.00;99.90
37646;DHT22;23489;49.600;6.138;2022-12-08T08:39:59;3.10;99.90
37646;DHT22;23489;49.600;6.138;2022-12-08T08:42:25;3.30;99.90
37646;DHT22;23489;49.600;6.138;2022-12-08T08:44:51;3.40;99.90
37646;DHT22;23489;49.600;6.138;2022-12-08T08:47:17;3.40;99.90
37646;DHT22;23489;49.600;6.138;2022-12-08T08:49:42;3.50;99.90
37646;DHT22;23489;49.600;6.138;2022-12-08T08:52:08;3.40;99.90
37646;DHT22;23489;49.600;6.138;2022-12-08T08:54:33;3.30;99.90
37646;DHT22;23489;49.600;6.138;2022-12-08T08:57:00;3.30;99.90
37646;DHT22;23489;49.600;6.138;2022-12-08T08:59:27;3.40;99.90
37646;DHT22;23489;49.600;6.138;2022-12-08T09:01:54;3.30;99.90
37646;DHT22;23489;49.600;6.138;2022-12-08T09:04:20;3.40;99.90
37646;DHT22;23489;49.600;6.138;2022-12-08T09:06:48;3.40;99.90
37646;DHT22;23489;49.600;6.138;2022-12-08T09:09:14;3.40;99.90
37646;DHT22;23489;49.600;6.138;2022-12-08T09:11:41;3.40;99.90
37646;DHT22;23489;49.600;6.138;2022-12-08T09:14:15;3.40;99.90
37646;DHT22;23489;49.600;6.138;2022-12-08T09:16:41;3.40;99.90
37646;DHT22;23489;49.600;6.138;2022-12-08T09:19:07;3.20;99.90
37646;DHT22;23489;49.600;6.138;2022-12-08T09:21:32;3.20;99.90
37646;DHT22;23489;49.600;6.138;2022-12-08T09:23:58;3.30;99.90
37646;DHT22;23489;49.600;6.138;2022-12-08T09:26:26;3.20;99.90
37646;DHT22;23489;49.600;6.138;2022-12-08T09:28:53;3.10;99.90
37646;DHT22;23489;49.600;6.138;2022-12-08T09:31:20;3.10;99.90
37646;DHT22;23489;49.600;6.138;2022-12-08T09:33:47;3.10;99.90
37646;DHT22;23489;49.600;6.138;2022-12-08T09:36:13;3.20;99.90
37646;DHT22;23489;49.600;6.138;2022-12-08T09:38:39;3.20;99.90
37646;DHT22;23489;49.600;6.138;2022-12-08T09:41:16;3.20;99.90
37646;DHT22;23489;49.600;6.138;2022-12-08T09:46:38;3.10;99.90
37646;DHT22;23489;49.600;6.138;2022-12-08T09:49:13;3.20;99.90
37646;DHT22;23489;49.600;6.138;2022-12-08T09:51:40;3.40;99.90
37646;DHT22;23489;49.600;6.138;2022-12-08T09:54:15;3.60;99.90
37646;DHT22;23489;49.600;6.138;2022-12-08T09:56:43;3.70;99.90
37646;DHT22;23489;49.600;6.138;2022-12-08T10:01:53;3.70;99.90
37646;DHT22;23489;49.600;6.138;2022-12-08T10:04:40;3.80;99.90
37646;DHT22;23489;49.600;6.138;2022-12-08T10:07:12;3.90;99.90
37646;DHT22;23489;49.600;6.138;2022-12-08T10:12:53;4.00;99.90
37646;DHT22;23489;49.600;6.138;2022-12-08T10:18:11;4.10;99.90
37646;DHT22;23489;49.600;6.138;2022-12-08T10:20:40;4.10;99.90
37646;DHT22;23489;49.600;6.138;2022-12-08T10:23:08;4.10;99.90
37646;DHT22;23489;49.600;6.138;2022-12-08T10:25:44;4.10;99.90
37646;DHT22;23489;49.600;6.138;2022-12-08T10:28:10;4.10;99.90
37646;DHT22;23489;49.600;6.138;2022-12-08T10:30:36;4.10;99.90
37646;DHT22;23489;49.600;6.138;2022-12-08T10:33:02;4.10;99.90
37646;DHT22;23489;49.600;6.138;2022-12-08T10:35:55;4.10;99.90
37646;DHT22;23489;49.600;6.138;2022-12-08T10:38:35;4.20;99.90
37646;DHT22;23489;49.600;6.138;2022-12-08T10:43:39;4.50;99.90
37646;DHT22;23489;49.600;6.138;2022-12-08T10:46:27;4.60;99.90
37646;DHT22;23489;49.600;6.138;2022-12-08T10:49:10;4.80;99.90
37646;DHT22;23489;49.600;6.138;2022-12-08T10:51:39;4.90;99.90
37646;DHT22;23489;49.600;6.138;2022-12-08T10:54:28;4.90;99.90
37646;DHT22;23489;49.600;6.138;2022-12-08T10:56:55;5.20;99.90
37646;DHT22;23489;49.600;6.138;2022-12-08T10:59:21;5.30;99.90
37646;DHT22;23489;49.600;6.138;2022-12-08T11:01:52;5.30;99.90
37646;DHT22;23489;49.600;6.138;2022-12-08T11:04:35;5.20;99.90
37646;DHT22;23489;49.600;6.138;2022-12-08T11:07:04;5.10;99.90
37646;DHT22;23489;49.600;6.138;2022-12-08T11:09:42;5.10;99.90
37646;DHT22;23489;49.600;6.138;2022-12-08T11:17:11;4.50;99.90
37646;DHT22;23489;49.600;6.138;2022-12-08T11:19:40;4.60;99.90
37646;DHT22;23489;49.600;6.138;2022-12-08T11:22:21;4.70;99.90
37646;DHT22;23489;49.600;6.138;2022-12-08T11:27:40;4.80;99.90
37646;DHT22;23489;49.600;6.138;2022-12-08T11:30:17;4.70;99.90
37646;DHT22;23489;49.600;6.138;2022-12-08T11:32:45;4.50;99.90
37646;DHT22;23489;49.600;6.138;2022-12-08T11:35:32;4.40;99.90
37646;DHT22;23489;49.600;6.138;2022-12-08T11:38:11;4.40;99.90
37646;DHT22;23489;49.600;6.138;2022-12-08T11:40:39;4.50;99.90
37646;DHT22;23489;49.600;6.138;2022-12-08T11:46:35;4.50;99.90
37646;DHT22;23489;49.600;6.138;2022-12-08T11:49:01;4.60;99.90
37646;DHT22;23489;49.600;6.138;2022-12-08T11:51:47;4.50;99.90
37646;DHT22;23489;49.600;6.138;2022-12-08T11:54:21;4.70;99.90
37646;DHT22;23489;49.600;6.138;2022-12-08T11:56:55;4.70;99.90
37646;DHT22;23489;49.600;6.138;2022-12-08T11:59:42;4.80;99.90
37646;DHT22;23489;49.600;6.138;2022-12-08T12:02:21;4.70;99.90
37646;DHT22;23489;49.600;6.138;2022-12-08T12:08:03;4.70;99.90
37646;DHT22;23489;49.600;6.138;2022-12-08T12:10:42;4.90;99.90
37646;DHT22;23489;49.600;6.138;2022-12-08T12:18:40;4.90;99.90
37646;DHT22;23489;49.600;6.138;2022-12-08T12:21:14;4.80;99.90
37646;DHT22;23489;49.600;6.138;2022-12-08T12:26:22;4.50;99.90
37646;DHT22;23489;49.600;6.138;2022-12-08T12:29:03;4.50;99.90
37646;DHT22;23489;49.600;6.138;2022-12-08T12:31:36;4.60;99.90
37646;DHT22;23489;49.600;6.138;2022-12-08T12:34:14;4.50;99.90
37646;DHT22;23489;49.600;6.138;2022-12-08T12:36:54;4.30;99.90
37646;DHT22;23489;49.600;6.138;2022-12-08T12:39:24;4.10;99.90
37646;DHT22;23489;49.600;6.138;2022-12-08T12:41:54;4.10;99.90
37646;DHT22;23489;49.600;6.138;2022-12-08T12:44:36;4.00;99.90
37646;DHT22;23489;49.600;6.138;2022-12-08T12:47:06;4.00;99.90
37646;DHT22;23489;49.600;6.138;2022-12-08T13:02:27;4.20;99.90
37646;DHT22;23489;49.600;6.138;2022-12-08T13:05:01;4.30;99.90
37646;DHT22;23489;49.600;6.138;2022-12-08T13:07:32;4.20;99.90
37646;DHT22;23489;49.600;6.138;2022-12-08T13:10:23;4.20;99.90
37646;DHT22;23489;49.600;6.138;2022-12-08T13:16:20;4.30;99.90
37646;DHT22;23489;49.600;6.138;2022-12-08T13:18:48;4.20;99.90
37646;DHT22;23489;49.600;6.138;2022-12-08T13:21:19;4.10;99.90
37646;DHT22;23489;49.600;6.138;2022-12-08T13:24:11;4.20;99.90
37646;DHT22;23489;49.600;6.138;2022-12-08T13:26:46;4.20;99.90
37646;DHT22;23489;49.600;6.138;2022-12-08T13:29:23;4.20;99.90
37646;DHT22;23489;49.600;6.138;2022-12-08T13:31:56;4.30;99.90
37646;DHT22;23489;49.600;6.138;2022-12-08T13:34:38;4.30;99.90
37646;DHT22;23489;49.600;6.138;2022-12-08T13:40:11;4.30;99.90
37646;DHT22;23489;49.600;6.138;2022-12-08T13:43:04;4.30;99.90
37646;DHT22;23489;49.600;6.138;2022-12-08T13:45:32;4.30;99.90
37646;DHT22;23489;49.600;6.138;2022-12-08T13:51:21;4.30;99.90
37646;DHT22;23489;49.600;6.138;2022-12-08T13:54:20;4.20;99.90
37646;DHT22;23489;49.600;6.138;2022-12-08T13:56:47;4.20;99.90
37646;DHT22;23489;49.600;6.138;2022-12-08T13:59:26;4.10;99.90
37646;DHT22;23489;49.600;6.138;2022-12-08T14:02:48;4.00;99.90
37646;DHT22;23489;49.600;6.138;2022-12-08T14:04:48;4.10;99.90
37646;DHT22;23489;49.600;6.138;2022-12-08T14:07:14;4.10;99.90
37646;DHT22;23489;49.600;6.138;2022-12-08T14:09:40;4.10;99.90
37646;DHT22;23489;49.600;6.138;2022-12-08T14:12:18;4.10;99.90
37646;DHT22;23489;49.600;6.138;2022-12-08T14:14:47;4.10;99.90
37646;DHT22;23489;49.600;6.138;2022-12-08T14:17:18;4.10;99.90
37646;DHT22;23489;49.600;6.138;2022-12-08T14:19:58;4.00;99.90
37646;DHT22;23489;49.600;6.138;2022-12-08T14:22:30;4.00;99.90
37646;DHT22;23489;49.600;6.138;2022-12-08T14:24:56;3.90;99.90
37646;DHT22;23489;49.600;6.138;2022-12-08T14:27:24;3.90;99.90
37646;DHT22;23489;49.600;6.138;2022-12-08T14:30:05;3.90;99.90
37646;DHT22;23489;49.600;6.138;2022-12-08T14:32:37;3.90;99.90
37646;DHT22;23489;49.600;6.138;2022-12-08T14:40:17;3.90;99.90
37646;DHT22;23489;49.600;6.138;2022-12-08T14:42:50;3.80;99.90
37646;DHT22;23489;49.600;6.138;2022-12-08T14:45:18;3.80;99.90
37646;DHT22;23489;49.600;6.138;2022-12-08T14:47:44;3.80;99.90
37646;DHT22;23489;49.600;6.138;2022-12-08T14:53:01;3.70;99.90
37646;DHT22;23489;49.600;6.138;2022-12-08T14:55:33;3.70;99.90
37646;DHT22;23489;49.600;6.138;2022-12-08T14:57:59;3.70;99.90
37646;DHT22;23489;49.600;6.138;2022-12-08T15:00:26;3.70;99.90
37646;DHT22;23489;49.600;6.138;2022-12-08T15:02:52;3.70;99.90
37646;DHT22;23489;49.600;6.138;2022-12-08T15:05:20;3.70;99.90
37646;DHT22;23489;49.600;6.138;2022-12-08T15:07:49;3.70;99.90
37646;DHT22;23489;49.600;6.138;2022-12-08T15:13:22;3.70;99.90
37646;DHT22;23489;49.600;6.138;2022-12-08T15:15:53;3.60;99.90
37646;DHT22;23489;49.600;6.138;2022-12-08T15:18:39;3.60;99.90
37646;DHT22;23489;49.600;6.138;2022-12-08T15:21:09;3.50;99.90
37646;DHT22;23489;49.600;6.138;2022-12-08T15:23:46;3.40;99.90
37646;DHT22;23489;49.600;6.138;2022-12-08T15:26:21;3.40;99.90
37646;DHT22;23489;49.600;6.138;2022-12-08T15:28:47;3.40;99.90
37646;DHT22;23489;49.600;6.138;2022-12-08T15:31:13;3.30;99.90
37646;DHT22;23489;49.600;6.138;2022-12-08T15:33:40;3.30;99.90
37646;DHT22;23489;49.600;6.138;2022-12-08T15:36:05;3.30;99.90
37646;DHT22;23489;49.600;6.138;2022-12-08T15:38:31;3.30;99.90
37646;DHT22;23489;49.600;6.138;2022-12-08T15:40:57;3.30;99.90
37646;DHT22;23489;49.600;6.138;2022-12-08T15:43:26;3.30;99.90
37646;DHT22;23489;49.600;6.138;2022-12-08T15:45:53;3.30;99.90
37646;DHT22;23489;49.600;6.138;2022-12-08T15:48:21;3.30;99.90
37646;DHT22;23489;49.600;6.138;2022-12-08T15:50:48;3.30;99.90
37646;DHT22;23489;49.600;6.138;2022-12-08T15:53:14;3.30;99.90
37646;DHT22;23489;49.600;6.138;2022-12-08T15:55:40;3.30;99.90
37646;DHT22;23489;49.600;6.138;2022-12-08T15:58:06;3.20;99.90
37646;DHT22;23489;49.600;6.138;2022-12-08T16:00:36;3.20;99.90
37646;DHT22;23489;49.600;6.138;2022-12-08T16:03:02;3.20;99.90
37646;DHT22;23489;49.600;6.138;2022-12-08T16:05:30;3.20;99.90
37646;DHT22;23489;49.600;6.138;2022-12-08T16:07:56;3.20;99.90
37646;DHT22;23489;49.600;6.138;2022-12-08T16:10:24;3.10;99.90
37646;DHT22;23489;49.600;6.138;2022-12-08T16:12:50;3.10;99.90
37646;DHT22;23489;49.600;6.138;2022-12-08T16:15:38;3.10;99.90
37646;DHT22;23489;49.600;6.138;2022-12-08T16:18:05;3.00;99.90
37646;DHT22;23489;49.600;6.138;2022-12-08T16:20:31;3.00;99.90
37646;DHT22;23489;49.600;6.138;2022-12-08T16:22:56;3.00;99.90
37646;DHT22;23489;49.600;6.138;2022-12-08T16:25:23;3.00;99.90
37646;DHT22;23489;49.600;6.138;2022-12-08T16:27:51;3.00;99.90
37646;DHT22;23489;49.600;6.138;2022-12-08T16:30:17;2.90;99.90
37646;DHT22;23489;49.600;6.138;2022-12-08T16:32:44;2.90;99.90
37646;DHT22;23489;49.600;6.138;2022-12-08T16:35:11;2.90;99.90
37646;DHT22;23489;49.600;6.138;2022-12-08T16:37:37;3.10;99.90
37646;DHT22;23489;49.600;6.138;2022-12-08T16:40:03;3.00;99.90
37646;DHT22;23489;49.600;6.138;2022-12-08T16:42:31;3.00;99.90
37646;DHT22;23489;49.600;6.138;2022-12-08T16:45:29;2.90;99.90
37646;DHT22;23489;49.600;6.138;2022-12-08T16:47:57;2.80;99.90
37646;DHT22;23489;49.600;6.138;2022-12-08T16:50:28;2.80;99.90
37646;DHT22;23489;49.600;6.138;2022-12-08T16:53:01;2.80;99.90
37646;DHT22;23489;49.600;6.138;2022-12-08T16:55:27;2.80;99.90
37646;DHT22;23489;49.600;6.138;2022-12-08T16:57:53;2.80;99.90
37646;DHT22;23489;49.600;6.138;2022-12-08T17:00:21;2.80;99.90
37646;DHT22;23489;49.600;6.138;2022-12-08T17:02:47;2.70;99.90
37646;DHT22;23489;49.600;6.138;2022-12-08T17:05:15;2.70;99.90
37646;DHT22;23489;49.600;6.138;2022-12-08T17:07:43;2.70;99.90
37646;DHT22;23489;49.600;6.138;2022-12-08T17:10:10;2.70;99.90
37646;DHT22;23489;49.600;6.138;2022-12-08T17:12:36;2.60;99.90
37646;DHT22;23489;49.600;6.138;2022-12-08T17:15:07;2.60;99.90
37646;DHT22;23489;49.600;6.138;2022-12-08T17:17:34;2.60;99.90
37646;DHT22;23489;49.600;6.138;2022-12-08T17:20:01;2.70;99.90
37646;DHT22;23489;49.600;6.138;2022-12-08T17:22:30;2.70;99.90
37646;DHT22;23489;49.600;6.138;2022-12-08T17:24:55;2.70;99.90
37646;DHT22;23489;49.600;6.138;2022-12-08T17:27:21;2.70;99.90